Time;durP1;ratioP1;P1;durP2;ratioP2;P2;SDS_P1;SDS_P2;PMS_P1;PMS_P2;Temp;Humidity;BMP_temperature;BMP_pressure;BME280_temperature;BME280_humidity;BME280_pressure;Samples;Min_cycle;Max_cycle;Signal;HPM_P1;HPM_P2
2021/09/28 00:00:13;;;;;;;0.30;0.30;;;;;;;;;;5071500;28;20450;-67
2021/09/28 00:02:39;;;;;;;0.30;0.30;;;;;;;;;;5071233;28;20434;-67
2021/09/28 00:05:06;;;;;;;0.30;0.30;;;;;;;;;;5071818;28;20427;-67
2021/09/28 00:07:32;;;;;;;0.30;0.30;;;;;;;;;;5071921;28;20870;-67
2021/09/28 00:09:58;;;;;;;0.30;0.30;;;;;;;;;;5071665;28;20405;-67
2021/09/28 00:12:24;;;;;;;0.30;0.30;;;;;;;;;;5071135;28;20442;-67
2021/09/28 00:14:50;;;;;;;0.30;0.30;;;;;;;;;;5071403;28;20447;-67
2021/09/28 00:17:16;;;;;;;0.30;0.30;;;;;;;;;;5071662;28;20375;-67
2021/09/28 00:19:42;;;;;;;0.30;0.30;;;;;;;;;;5071809;28;20402;-67
2021/09/28 00:22:08;;;;;;;0.30;0.30;;;;;;;;;;5070235;28;20796;-67
2021/09/28 00:24:34;;;;;;;0.30;0.30;;;;;;;;;;5070850;28;20746;-67
2021/09/28 00:27:01;;;;;;;0.30;0.30;;;;;;;;;;5071683;28;20420;-67
2021/09/28 00:29:27;;;;;;;0.30;0.30;;;;;;;;;;5071615;28;20408;-67
2021/09/28 00:31:53;;;;;;;0.30;0.30;;;;;;;;;;5071259;28;20422;-67
2021/09/28 00:34:19;;;;;;;0.30;0.30;;;;;;;;;;5071495;28;20440;-67
2021/09/28 00:36:45;;;;;;;0.30;0.30;;;;;;;;;;5070852;28;20479;-67
2021/09/28 00:39:11;;;;;;;0.30;0.30;;;;;;;;;;5071572;28;20402;-67
2021/09/28 00:41:37;;;;;;;0.30;0.30;;;;;;;;;;5071256;28;20388;-67
2021/09/28 00:44:04;;;;;;;0.30;0.30;;;;;;;;;;5071439;28;20425;-67
2021/09/28 00:46:30;;;;;;;0.30;0.30;;;;;;;;;;5071015;28;20491;-67
2021/09/28 00:48:56;;;;;;;0.30;0.30;;;;;;;;;;5070973;28;20873;-67
2021/09/28 00:51:22;;;;;;;0.30;0.30;;;;;;;;;;5071154;28;20421;-67
2021/09/28 00:53:49;;;;;;;0.30;0.30;;;;;;;;;;5071368;28;20409;-67
2021/09/28 00:56:16;;;;;;;0.30;0.30;;;;;;;;;;5072498;28;20440;-67
2021/09/28 00:58:42;;;;;;;0.30;0.30;;;;;;;;;;5074809;28;20452;-67
2021/09/28 01:01:09;;;;;;;0.30;0.30;;;;;;;;;;5074783;28;20191;-67
2021/09/28 01:03:35;;;;;;;0.30;0.30;;;;;;;;;;5075295;28;20402;-67
2021/09/28 01:06:02;;;;;;;0.30;0.30;;;;;;;;;;5075215;28;20881;-67
2021/09/28 01:08:28;;;;;;;0.30;0.30;;;;;;;;;;5074546;28;20442;-67
2021/09/28 01:10:54;;;;;;;0.40;0.40;;;;;;;;;;5074489;28;20837;-67
2021/09/28 01:13:21;;;;;;;0.40;0.40;;;;;;;;;;5074838;28;20924;-67
2021/09/28 01:15:59;;;;;;;0.30;0.30;;;;;;;;;;5074946;28;20402;-67
2021/09/28 01:18:32;;;;;;;0.30;0.30;;;;;;;;;;5074027;28;20251;-67
2021/09/28 01:20:59;;;;;;;0.30;0.30;;;;;;;;;;5072931;28;20538;-67
2021/09/28 01:23:25;;;;;;;0.40;0.40;;;;;;;;;;5074786;28;20430;-67
2021/09/28 01:25:51;;;;;;;0.30;0.30;;;;;;;;;;5074551;28;20431;-67
2021/09/28 01:28:17;;;;;;;0.30;0.30;;;;;;;;;;5074838;28;20405;-67
2021/09/28 01:30:43;;;;;;;0.30;0.30;;;;;;;;;;5074282;28;20456;-67
2021/09/28 01:33:09;;;;;;;0.30;0.30;;;;;;;;;;5073077;28;20446;-67
2021/09/28 01:35:37;;;;;;;0.33;0.33;;;;;;;;;;5074721;28;20406;-67
2021/09/28 01:38:04;;;;;;;0.30;0.30;;;;;;;;;;5074253;28;20414;-67
2021/09/28 01:40:30;;;;;;;0.30;0.30;;;;;;;;;;5074342;28;20416;-67
2021/09/28 01:42:56;;;;;;;0.30;0.30;;;;;;;;;;5074063;28;20212;-67
2021/09/28 01:45:22;;;;;;;0.30;0.30;;;;;;;;;;5074423;28;20492;-67
2021/09/28 01:47:48;;;;;;;0.30;0.30;;;;;;;;;;5074616;28;20212;-67
2021/09/28 01:50:14;;;;;;;0.30;0.30;;;;;;;;;;5073787;28;20201;-67
2021/09/28 01:52:40;;;;;;;0.30;0.30;;;;;;;;;;5074114;28;20465;-67
2021/09/28 01:55:07;;;;;;;0.30;0.30;;;;;;;;;;5073874;28;20407;-67
2021/09/28 01:57:34;;;;;;;0.30;0.30;;;;;;;;;;5074290;28;20416;-67
2021/09/28 02:00:00;;;;;;;0.40;0.40;;;;;;;;;;5074252;28;20410;-67
2021/09/28 02:02:26;;;;;;;0.40;0.40;;;;;;;;;;5073740;28;20446;-67
2021/09/28 02:04:52;;;;;;;0.40;0.40;;;;;;;;;;5073552;28;20476;-67
2021/09/28 02:07:18;;;;;;;0.30;0.30;;;;;;;;;;5073728;28;20159;-67
2021/09/28 02:09:44;;;;;;;0.30;0.30;;;;;;;;;;5073234;28;20933;-67
2021/09/28 02:12:10;;;;;;;0.30;0.30;;;;;;;;;;5073673;28;20584;-67
2021/09/28 02:14:36;;;;;;;0.30;0.30;;;;;;;;;;5073849;28;20253;-67
2021/09/28 02:17:02;;;;;;;0.30;0.30;;;;;;;;;;5073537;28;21148;-67
2021/09/28 02:19:28;;;;;;;0.30;0.30;;;;;;;;;;5073901;28;20407;-67
2021/09/28 02:21:54;;;;;;;0.30;0.30;;;;;;;;;;5073587;28;20443;-67
2021/09/28 02:24:21;;;;;;;0.30;0.30;;;;;;;;;;5073940;28;20395;-67
2021/09/28 02:26:47;;;;;;;0.30;0.30;;;;;;;;;;5072182;28;20435;-67
2021/09/28 02:29:13;;;;;;;0.30;0.30;;;;;;;;;;5073706;28;20807;-67
2021/09/28 02:31:39;;;;;;;0.30;0.30;;;;;;;;;;5073593;28;20535;-67
2021/09/28 02:34:10;;;;;;;0.30;0.30;;;;;;;;;;5073626;28;20465;-67
2021/09/28 02:36:37;;;;;;;0.30;0.30;;;;;;;;;;5073811;28;20434;-68
2021/09/28 02:39:04;;;;;;;0.30;0.30;;;;;;;;;;5071690;28;20392;-67
2021/09/28 02:41:30;;;;;;;0.40;0.40;;;;;;;;;;5073124;28;20184;-67
2021/09/28 02:43:56;;;;;;;0.30;0.30;;;;;;;;;;5073404;28;20406;-67
2021/09/28 02:46:22;;;;;;;0.30;0.30;;;;;;;;;;5073305;28;20445;-67
2021/09/28 02:48:48;;;;;;;0.30;0.30;;;;;;;;;;5072954;28;20414;-67
2021/09/28 02:51:14;;;;;;;0.30;0.30;;;;;;;;;;5072414;28;20406;-67
2021/09/28 02:53:40;;;;;;;0.30;0.30;;;;;;;;;;5073193;28;20378;-67
2021/09/28 02:56:06;;;;;;;0.30;0.30;;;;;;;;;;5073197;28;20406;-67
2021/09/28 02:58:32;;;;;;;0.30;0.30;;;;;;;;;;5073109;28;20463;-67
2021/09/28 03:00:58;;;;;;;0.40;0.40;;;;;;;;;;5072376;28;21035;-67
2021/09/28 03:03:24;;;;;;;0.30;0.30;;;;;;;;;;5072644;28;20430;-67
2021/09/28 03:05:50;;;;;;;0.30;0.30;;;;;;;;;;5071628;28;20261;-67
2021/09/28 03:08:16;;;;;;;0.30;0.30;;;;;;;;;;5072982;28;20413;-67
2021/09/28 03:10:43;;;;;;;0.30;0.30;;;;;;;;;;5072598;28;20825;-67
2021/09/28 03:13:10;;;;;;;0.30;0.30;;;;;;;;;;5071086;28;20175;-67
2021/09/28 03:15:36;;;;;;;0.30;0.30;;;;;;;;;;5071274;28;20406;-67
2021/09/28 03:18:02;;;;;;;0.30;0.30;;;;;;;;;;5072592;28;20175;-67
2021/09/28 03:20:28;;;;;;;0.30;0.30;;;;;;;;;;5071810;28;20397;-67
2021/09/28 03:22:54;;;;;;;0.30;0.30;;;;;;;;;;5072400;28;20822;-67
2021/09/28 03:25:20;;;;;;;0.30;0.30;;;;;;;;;;5072425;28;20230;-67
2021/09/28 03:27:46;;;;;;;0.30;0.30;;;;;;;;;;5072393;28;20194;-68
2021/09/28 03:30:13;;;;;;;0.40;0.40;;;;;;;;;;5072335;28;20427;-67
2021/09/28 03:32:39;;;;;;;0.30;0.30;;;;;;;;;;5072369;28;20295;-67
2021/09/28 03:35:09;;;;;;;0.30;0.30;;;;;;;;;;5072051;28;20513;-68
2021/09/28 03:37:35;;;;;;;0.30;0.30;;;;;;;;;;5072419;28;20178;-68
2021/09/28 03:40:01;;;;;;;0.30;0.30;;;;;;;;;;5072015;28;20202;-67
2021/09/28 03:42:27;;;;;;;0.30;0.30;;;;;;;;;;5072158;28;20684;-69
2021/09/28 03:44:53;;;;;;;0.30;0.30;;;;;;;;;;5071952;28;20191;-67
2021/09/28 03:47:19;;;;;;;0.30;0.30;;;;;;;;;;5071986;28;20411;-67
2021/09/28 03:49:45;;;;;;;0.30;0.30;;;;;;;;;;5072197;28;20206;-68
2021/09/28 03:52:11;;;;;;;0.30;0.30;;;;;;;;;;5071631;28;20219;-67
2021/09/28 03:54:37;;;;;;;0.30;0.30;;;;;;;;;;5072444;28;20194;-68
2021/09/28 03:57:03;;;;;;;0.40;0.40;;;;;;;;;;5071577;28;20435;-67
2021/09/28 03:59:29;;;;;;;0.30;0.30;;;;;;;;;;5072000;28;20203;-68
2021/09/28 04:01:55;;;;;;;0.30;0.30;;;;;;;;;;5071638;28;20187;-67
2021/09/28 04:04:21;;;;;;;0.30;0.30;;;;;;;;;;5071633;28;20230;-68
2021/09/28 04:06:47;;;;;;;0.30;0.30;;;;;;;;;;5071830;28;20458;-67
2021/09/28 04:09:13;;;;;;;0.30;0.30;;;;;;;;;;5071606;28;20174;-67
2021/09/28 04:11:40;;;;;;;0.30;0.30;;;;;;;;;;5071454;28;20518;-67
2021/09/28 04:14:07;;;;;;;0.40;0.40;;;;;;;;;;5071730;28;20246;-67
2021/09/28 04:16:33;;;;;;;0.30;0.30;;;;;;;;;;5071531;28;20179;-67
2021/09/28 04:18:59;;;;;;;0.40;0.40;;;;;;;;;;5071274;28;20603;-67
2021/09/28 04:21:27;;;;;;;0.30;0.30;;;;;;;;;;5071507;28;20269;-67
2021/09/28 04:23:53;;;;;;;0.30;0.30;;;;;;;;;;5071789;28;20170;-67
2021/09/28 04:26:19;;;;;;;0.30;0.30;;;;;;;;;;5071626;28;20198;-67
2021/09/28 04:28:45;;;;;;;0.40;0.40;;;;;;;;;;5071357;28;20175;-67
2021/09/28 04:31:14;;;;;;;0.30;0.30;;;;;;;;;;5070868;28;20209;-67
2021/09/28 04:33:40;;;;;;;0.40;0.40;;;;;;;;;;5071614;28;20500;-68
2021/09/28 04:36:06;;;;;;;0.30;0.30;;;;;;;;;;5071668;28;20193;-67
2021/09/28 04:38:32;;;;;;;0.30;0.30;;;;;;;;;;5071586;28;20167;-68
2021/09/28 04:41:00;;;;;;;0.30;0.30;;;;;;;;;;5030592;28;20421;-67
2021/09/28 04:43:26;;;;;;;0.30;0.30;;;;;;;;;;5030062;28;20196;-68
2021/09/28 04:45:52;;;;;;;0.40;0.40;;;;;;;;;;5031644;28;20204;-68
2021/09/28 04:48:18;;;;;;;0.30;0.30;;;;;;;;;;5031247;28;20173;-67
2021/09/28 04:50:46;;;;;;;0.30;0.30;;;;;;;;;;5031217;28;20188;-67
2021/09/28 04:53:12;;;;;;;0.30;0.30;;;;;;;;;;5031142;28;20165;-68
2021/09/28 04:55:38;;;;;;;0.40;0.40;;;;;;;;;;5031443;28;20176;-68
2021/09/28 04:58:04;;;;;;;0.30;0.30;;;;;;;;;;5031842;28;20256;-69
2021/09/28 05:00:30;;;;;;;0.30;0.30;;;;;;;;;;5040484;28;20434;-67
2021/09/28 05:02:56;;;;;;;0.40;0.40;;;;;;;;;;5051084;28;20417;-68
2021/09/28 05:05:22;;;;;;;0.30;0.30;;;;;;;;;;5050742;28;20450;-68
2021/09/28 05:07:48;;;;;;;0.30;0.30;;;;;;;;;;5041932;28;20763;-68
2021/09/28 05:10:14;;;;;;;0.30;0.30;;;;;;;;;;5046549;28;20651;-68
2021/09/28 05:12:40;;;;;;;0.30;0.30;;;;;;;;;;5059077;22;21076;-67
2021/09/28 05:15:07;;;;;;;0.30;0.30;;;;;;;;;;5009397;28;20189;-65
2021/09/28 05:17:35;;;;;;;0.30;0.30;;;;;;;;;;5000966;28;20413;-65
2021/09/28 05:20:01;;;;;;;0.30;0.30;;;;;;;;;;4991926;28;20213;-65
2021/09/28 05:22:27;;;;;;;0.30;0.30;;;;;;;;;;5004416;28;20213;-65
2021/09/28 05:24:53;;;;;;;0.30;0.30;;;;;;;;;;5031054;28;20192;-66
2021/09/28 05:27:19;;;;;;;0.45;0.45;;;;;;;;;;5025340;28;20867;-66
2021/09/28 05:29:45;;;;;;;0.30;0.30;;;;;;;;;;5011185;28;20205;-66
2021/09/28 05:32:11;;;;;;;0.40;0.40;;;;;;;;;;5012242;28;20224;-67
2021/09/28 05:34:37;;;;;;;0.30;0.30;;;;;;;;;;5027992;28;20494;-64
2021/09/28 05:37:03;;;;;;;0.40;0.40;;;;;;;;;;5022229;28;20475;-64
2021/09/28 05:39:29;;;;;;;0.30;0.30;;;;;;;;;;5028720;28;20207;-66
2021/09/28 05:41:55;;;;;;;0.30;0.30;;;;;;;;;;5030166;28;20166;-61
2021/09/28 05:44:21;;;;;;;0.30;0.30;;;;;;;;;;5014837;28;20681;-64
2021/09/28 05:46:47;;;;;;;0.30;0.30;;;;;;;;;;5014134;28;20459;-59
2021/09/28 05:49:13;;;;;;;0.30;0.30;;;;;;;;;;5011866;28;20503;-66
2021/09/28 05:51:44;;;;;;;0.30;0.30;;;;;;;;;;5014360;28;20197;-66
2021/09/28 05:54:10;;;;;;;0.30;0.30;;;;;;;;;;5012646;28;20948;-65
2021/09/28 05:56:36;;;;;;;0.30;0.30;;;;;;;;;;5014202;28;20197;-66
2021/09/28 05:59:02;;;;;;;0.30;0.30;;;;;;;;;;5014370;28;20531;-65
2021/09/28 06:01:28;;;;;;;0.30;0.30;;;;;;;;;;5014220;28;20177;-65
2021/09/28 06:03:54;;;;;;;0.30;0.30;;;;;;;;;;5014474;28;20220;-66
2021/09/28 06:06:26;;;;;;;0.30;0.30;;;;;;;;;;5014373;28;20287;-66
2021/09/28 06:08:52;;;;;;;0.30;0.30;;;;;;;;;;5014629;28;20400;-66
2021/09/28 06:11:18;;;;;;;0.30;0.30;;;;;;;;;;5013823;28;20166;-67
2021/09/28 06:13:44;;;;;;;0.30;0.30;;;;;;;;;;5014161;28;20455;-64
2021/09/28 06:16:10;;;;;;;0.40;0.40;;;;;;;;;;5014249;28;20409;-68
2021/09/28 06:18:36;;;;;;;0.30;0.30;;;;;;;;;;5013879;28;20880;-67
2021/09/28 06:21:02;;;;;;;0.40;0.40;;;;;;;;;;5014308;28;20200;-67
2021/09/28 06:23:28;;;;;;;0.30;0.30;;;;;;;;;;5014357;28;20417;-67
2021/09/28 06:25:54;;;;;;;0.40;0.40;;;;;;;;;;5014145;28;20229;-68
2021/09/28 06:28:20;;;;;;;0.30;0.30;;;;;;;;;;5014150;28;20177;-68
2021/09/28 06:30:46;;;;;;;0.30;0.30;;;;;;;;;;5013885;28;20189;-65
2021/09/28 06:33:12;;;;;;;0.30;0.30;;;;;;;;;;5013993;28;20252;-68
2021/09/28 06:35:38;;;;;;;0.30;0.30;;;;;;;;;;5013989;28;20604;-65
2021/09/28 06:38:06;;;;;;;0.30;0.30;;;;;;;;;;5013909;28;20181;-68
2021/09/28 06:40:32;;;;;;;0.30;0.30;;;;;;;;;;5013667;28;20644;-67
2021/09/28 06:42:58;;;;;;;0.30;0.30;;;;;;;;;;5013825;28;20207;-65
2021/09/28 06:45:24;;;;;;;0.30;0.30;;;;;;;;;;5013677;28;20276;-67
2021/09/28 06:47:51;;;;;;;0.30;0.30;;;;;;;;;;5013642;28;20404;-67
2021/09/28 06:50:16;;;;;;;0.30;0.30;;;;;;;;;;5013537;28;20166;-67
2021/09/28 06:52:44;;;;;;;0.30;0.30;;;;;;;;;;5013684;28;20182;-66
2021/09/28 06:55:11;;;;;;;0.30;0.30;;;;;;;;;;5012819;28;20755;-66
2021/09/28 06:57:37;;;;;;;0.30;0.30;;;;;;;;;;5013520;28;20170;-66
2021/09/28 07:00:05;;;;;;;0.30;0.30;;;;;;;;;;5013453;28;20757;-64
2021/09/28 07:02:31;;;;;;;0.40;0.40;;;;;;;;;;5013234;28;20501;-66
2021/09/28 07:04:57;;;;;;;0.30;0.30;;;;;;;;;;5013258;28;20461;-67
2021/09/28 07:07:24;;;;;;;0.40;0.40;;;;;;;;;;5013369;28;20396;-66
2021/09/28 07:09:50;;;;;;;0.30;0.30;;;;;;;;;;5013343;28;20190;-66
2021/09/28 07:12:17;;;;;;;0.40;0.40;;;;;;;;;;5012949;28;20539;-67
2021/09/28 07:14:43;;;;;;;0.30;0.30;;;;;;;;;;5012372;28;20181;-67
2021/09/28 07:17:08;;;;;;;0.30;0.30;;;;;;;;;;5013207;28;20170;-67
2021/09/28 07:19:34;;;;;;;0.30;0.30;;;;;;;;;;5011615;28;20403;-68
2021/09/28 07:22:00;;;;;;;0.40;0.40;;;;;;;;;;5012799;28;20981;-68
2021/09/28 07:24:26;;;;;;;0.30;0.30;;;;;;;;;;5024911;28;20423;-68
2021/09/28 07:26:53;;;;;;;0.30;0.30;;;;;;;;;;5032550;28;21166;-65
2021/09/28 07:29:19;;;;;;;0.30;0.30;;;;;;;;;;5017046;28;20408;-66
2021/09/28 07:31:45;;;;;;;0.40;0.40;;;;;;;;;;5012824;28;20425;-64
2021/09/28 07:34:11;;;;;;;0.30;0.30;;;;;;;;;;5013088;28;20396;-66
2021/09/28 07:36:37;;;;;;;0.30;0.30;;;;;;;;;;5013020;28;20423;-66
2021/09/28 07:39:04;;;;;;;0.30;0.30;;;;;;;;;;5013032;28;20411;-67
2021/09/28 07:41:30;;;;;;;0.30;0.30;;;;;;;;;;5012594;28;20375;-66
2021/09/28 07:43:56;;;;;;;0.30;0.30;;;;;;;;;;5012805;28;20432;-66
2021/09/28 07:46:22;;;;;;;0.30;0.30;;;;;;;;;;5012623;28;20437;-66
2021/09/28 07:48:48;;;;;;;0.30;0.30;;;;;;;;;;5012890;28;20447;-67
2021/09/28 07:51:15;;;;;;;0.30;0.30;;;;;;;;;;5011314;28;20408;-66
2021/09/28 07:53:41;;;;;;;0.30;0.30;;;;;;;;;;5012524;28;20421;-66
2021/09/28 07:56:07;;;;;;;0.30;0.30;;;;;;;;;;5012553;28;20408;-66
2021/09/28 07:58:33;;;;;;;0.30;0.30;;;;;;;;;;5012715;28;20911;-66
2021/09/28 08:00:59;;;;;;;0.30;0.30;;;;;;;;;;5012563;28;20500;-66
2021/09/28 08:03:25;;;;;;;0.40;0.40;;;;;;;;;;5012516;28;20435;-66
2021/09/28 08:05:51;;;;;;;0.30;0.30;;;;;;;;;;5012179;28;20456;-66
2021/09/28 08:08:18;;;;;;;0.30;0.30;;;;;;;;;;5012591;28;20404;-67
2021/09/28 08:10:44;;;;;;;0.30;0.30;;;;;;;;;;5012229;28;20439;-66
2021/09/28 08:13:10;;;;;;;0.30;0.30;;;;;;;;;;5012301;28;20886;-66
2021/09/28 08:15:36;;;;;;;0.30;0.30;;;;;;;;;;5012363;28;20413;-66
2021/09/28 08:18:03;;;;;;;0.30;0.30;;;;;;;;;;5012451;28;20439;-65
2021/09/28 08:20:29;;;;;;;0.30;0.30;;;;;;;;;;5012249;28;20409;-65
2021/09/28 08:22:56;;;;;;;0.30;0.30;;;;;;;;;;5012071;28;20476;-66
2021/09/28 08:25:32;;;;;;;0.30;0.30;;;;;;;;;;5012097;28;20422;-65
2021/09/28 08:30:43;;;;;;;0.30;0.30;;;;;;;;;;5012157;28;20436;-66
2021/09/28 08:33:09;;;;;;;0.30;0.30;;;;;;;;;;5011937;28;20415;-67
2021/09/28 08:35:35;;;;;;;0.30;0.30;;;;;;;;;;5011827;28;20854;-67
2021/09/28 08:38:01;;;;;;;0.30;0.20;;;;;;;;;;5012025;28;20811;-67
2021/09/28 08:40:27;;;;;;;0.30;0.30;;;;;;;;;;5011672;28;20839;-67
2021/09/28 08:42:55;;;;;;;0.30;0.30;;;;;;;;;;5011846;28;20460;-66
2021/09/28 08:45:22;;;;;;;0.30;0.20;;;;;;;;;;5011789;28;20430;-66
2021/09/28 08:47:48;;;;;;;0.30;0.30;;;;;;;;;;5011855;28;20454;-67
2021/09/28 08:50:18;;;;;;;0.30;0.20;;;;;;;;;;5011535;28;20845;-67
2021/09/28 08:52:45;;;;;;;0.30;0.30;;;;;;;;;;5011996;28;20424;-66
2021/09/28 08:55:11;;;;;;;0.30;0.20;;;;;;;;;;5011904;28;20422;-67
2021/09/28 08:57:38;;;;;;;0.30;0.20;;;;;;;;;;5011905;28;20412;-66
2021/09/28 09:00:25;;;;;;;0.30;0.20;;;;;;;;;;5011666;28;20419;-67
2021/09/28 09:02:51;;;;;;;0.30;0.20;;;;;;;;;;5011597;28;20474;-67
2021/09/28 09:05:17;;;;;;;0.30;0.30;;;;;;;;;;5011670;28;20437;-67
2021/09/28 09:07:44;;;;;;;0.30;0.30;;;;;;;;;;5011870;28;20458;-65
2021/09/28 09:10:11;;;;;;;0.30;0.30;;;;;;;;;;5011611;28;20988;-64
2021/09/28 09:12:39;;;;;;;0.30;0.30;;;;;;;;;;5011508;28;20459;-67
2021/09/28 09:15:25;;;;;;;0.30;0.20;;;;;;;;;;5011475;28;20403;-65
2021/09/28 09:17:52;;;;;;;0.30;0.30;;;;;;;;;;5012652;28;20412;-67
2021/09/28 09:20:32;;;;;;;0.30;0.30;;;;;;;;;;5015209;28;20907;-67
2021/09/28 09:23:17;;;;;;;0.30;0.20;;;;;;;;;;5035022;28;20927;-66
2021/09/28 09:25:44;;;;;;;0.30;0.30;;;;;;;;;;5034825;28;20493;-66
2021/09/28 09:28:20;;;;;;;0.30;0.20;;;;;;;;;;5035046;28;20407;-67
2021/09/28 09:30:46;;;;;;;0.30;0.20;;;;;;;;;;5034745;28;20852;-67
2021/09/28 09:33:12;;;;;;;0.30;0.30;;;;;;;;;;5034819;28;20394;-68
2021/09/28 09:35:38;;;;;;;0.30;0.20;;;;;;;;;;5034867;28;20432;-67
2021/09/28 09:38:09;;;;;;;0.30;0.20;;;;;;;;;;5017423;28;20421;-67
2021/09/28 09:40:36;;;;;;;0.30;0.20;;;;;;;;;;5014736;28;20434;-67
2021/09/28 09:43:03;;;;;;;0.30;0.20;;;;;;;;;;5014963;28;20425;-67
2021/09/28 09:45:29;;;;;;;0.30;0.20;;;;;;;;;;5014884;28;20453;-67
2021/09/28 09:47:55;;;;;;;0.30;0.20;;;;;;;;;;5014875;28;20396;-67
2021/09/28 09:50:26;;;;;;;0.30;0.20;;;;;;;;;;5014481;28;20402;-67
2021/09/28 09:52:55;;;;;;;0.30;0.20;;;;;;;;;;5012606;28;20430;-68
2021/09/28 09:55:28;;;;;;;0.30;0.20;;;;;;;;;;5024790;28;20421;-68
2021/09/28 09:57:55;;;;;;;0.20;0.20;;;;;;;;;;5033215;28;20426;-68
2021/09/28 10:00:21;;;;;;;0.20;0.20;;;;;;;;;;5034553;28;20934;-67
2021/09/28 10:02:47;;;;;;;0.20;0.20;;;;;;;;;;5034270;28;20834;-67
2021/09/28 10:05:13;;;;;;;0.20;0.20;;;;;;;;;;5034137;28;20458;-68
2021/09/28 10:07:40;;;;;;;0.20;0.20;;;;;;;;;;5016535;28;20801;-67
2021/09/28 10:10:08;;;;;;;0.20;0.20;;;;;;;;;;5015115;28;20423;-66
2021/09/28 10:12:38;;;;;;;0.20;0.20;;;;;;;;;;5033978;28;20443;-67
2021/09/28 10:15:07;;;;;;;0.20;0.20;;;;;;;;;;5016205;28;20421;-67
2021/09/28 10:17:39;;;;;;;0.20;0.20;;;;;;;;;;5014093;28;20410;-67
2021/09/28 10:20:06;;;;;;;0.20;0.20;;;;;;;;;;5014043;28;21159;-66
2021/09/28 10:22:53;;;;;;;0.20;0.20;;;;;;;;;;5014070;28;20426;-67
2021/09/28 10:25:20;;;;;;;0.20;0.20;;;;;;;;;;5014139;28;20457;-67
2021/09/28 10:27:46;;;;;;;0.20;0.20;;;;;;;;;;5013864;28;20463;-68
2021/09/28 10:30:35;;;;;;;0.20;0.20;;;;;;;;;;5013274;28;20407;-67
2021/09/28 10:33:04;;;;;;;0.20;0.20;;;;;;;;;;5013716;28;20421;-66
2021/09/28 10:35:31;;;;;;;0.20;0.20;;;;;;;;;;5014051;28;20919;-67
2021/09/28 10:38:01;;;;;;;0.20;0.20;;;;;;;;;;5014015;28;20461;-67
2021/09/28 10:40:27;;;;;;;0.20;0.20;;;;;;;;;;5013659;28;20467;-67
2021/09/28 10:43:00;;;;;;;0.20;0.20;;;;;;;;;;5013042;28;20425;-66
2021/09/28 10:45:29;;;;;;;0.20;0.20;;;;;;;;;;5013656;28;20463;-67
2021/09/28 10:47:55;;;;;;;0.20;0.20;;;;;;;;;;5013814;28;20896;-67
2021/09/28 10:50:24;;;;;;;0.20;0.20;;;;;;;;;;5013566;28;20404;-67
2021/09/28 10:52:50;;;;;;;0.20;0.20;;;;;;;;;;5013380;28;20439;-67
2021/09/28 10:55:16;;;;;;;0.20;0.20;;;;;;;;;;5013162;28;20407;-66
2021/09/28 10:57:55;;;;;;;0.20;0.20;;;;;;;;;;5013442;28;20404;-68
2021/09/28 11:00:21;;;;;;;0.20;0.20;;;;;;;;;;5013154;28;20408;-67
2021/09/28 11:03:06;;;;;;;0.20;0.20;;;;;;;;;;5013474;28;20421;-67
2021/09/28 11:05:32;;;;;;;0.20;0.20;;;;;;;;;;5012907;28;20492;-67
2021/09/28 11:07:59;;;;;;;0.20;0.20;;;;;;;;;;5013126;28;20492;-67
2021/09/28 11:10:26;;;;;;;0.20;0.20;;;;;;;;;;5013111;28;20429;-67
2021/09/28 11:12:52;;;;;;;0.20;0.20;;;;;;;;;;5052110;22;20492;-69
2021/09/28 11:15:18;;;;;;;0.20;0.20;;;;;;;;;;5070149;28;20421;-68
2021/09/28 11:17:45;;;;;;;0.20;0.20;;;;;;;;;;5071325;28;20458;-69
2021/09/28 11:20:21;;;;;;;0.20;0.20;;;;;;;;;;5070983;28;20469;-68
2021/09/28 11:22:57;;;;;;;0.20;0.20;;;;;;;;;;5072632;28;20911;-69
2021/09/28 11:25:23;;;;;;;0.20;0.20;;;;;;;;;;5071247;28;20950;-68
2021/09/28 11:28:00;;;;;;;0.20;0.20;;;;;;;;;;5070376;28;20426;-68
2021/09/28 11:30:26;;;;;;;0.20;0.20;;;;;;;;;;5054678;28;20445;-68
2021/09/28 11:32:58;;;;;;;0.20;0.20;;;;;;;;;;5070650;28;20430;-68
2021/09/28 11:35:25;;;;;;;0.20;0.20;;;;;;;;;;5070906;28;20512;-68
2021/09/28 11:37:59;;;;;;;0.20;0.20;;;;;;;;;;5070520;28;20417;-67
2021/09/28 11:40:36;;;;;;;0.30;0.30;;;;;;;;;;5070192;28;20409;-67
2021/09/28 11:43:19;;;;;;;0.20;0.20;;;;;;;;;;5070901;28;20436;-68
2021/09/28 11:45:45;;;;;;;0.20;0.20;;;;;;;;;;5070698;28;20866;-68
2021/09/28 11:48:11;;;;;;;0.20;0.20;;;;;;;;;;5071094;28;20384;-68
2021/09/28 11:50:38;;;;;;;0.20;0.20;;;;;;;;;;5071472;28;20411;-68
2021/09/28 11:53:08;;;;;;;0.20;0.20;;;;;;;;;;5070557;28;20465;-68
2021/09/28 11:55:34;;;;;;;0.20;0.20;;;;;;;;;;5071929;28;20911;-68
2021/09/28 11:58:00;;;;;;;0.20;0.20;;;;;;;;;;5070616;28;20436;-68
2021/09/28 12:00:27;;;;;;;0.20;0.20;;;;;;;;;;5069728;28;20388;-68
2021/09/28 12:03:26;;;;;;;0.20;0.20;;;;;;;;;;5053971;28;20469;-68
2021/09/28 12:08:22;;;;;;;0.20;0.20;;;;;;;;;;5070272;28;20847;-68
2021/09/28 12:10:49;;;;;;;0.20;0.20;;;;;;;;;;5071307;28;20425;-68
2021/09/28 12:13:26;;;;;;;0.20;0.20;;;;;;;;;;5070011;28;20419;-68
2021/09/28 12:15:58;;;;;;;0.20;0.20;;;;;;;;;;5071902;28;20476;-69
2021/09/28 12:18:24;;;;;;;0.20;0.20;;;;;;;;;;5070534;28;20471;-68
2021/09/28 12:20:50;;;;;;;0.20;0.20;;;;;;;;;;5069962;28;20448;-68
2021/09/28 12:23:16;;;;;;;0.20;0.20;;;;;;;;;;5069892;28;20404;-68
2021/09/28 12:25:44;;;;;;;0.20;0.20;;;;;;;;;;5070376;28;20854;-68
2021/09/28 12:28:19;;;;;;;0.20;0.20;;;;;;;;;;5071686;28;20492;-68
2021/09/28 12:30:54;;;;;;;0.20;0.20;;;;;;;;;;5070020;28;20878;-68
2021/09/28 12:33:20;;;;;;;0.20;0.20;;;;;;;;;;5069517;28;20927;-68
2021/09/28 12:35:50;;;;;;;0.20;0.20;;;;;;;;;;5069913;28;20504;-68
2021/09/28 12:38:16;;;;;;;0.20;0.20;;;;;;;;;;5071460;28;20591;-68
2021/09/28 12:40:43;;;;;;;0.20;0.20;;;;;;;;;;5069960;28;20424;-68
2021/09/28 12:43:14;;;;;;;0.20;0.20;;;;;;;;;;5071238;28;20408;-68
2021/09/28 12:45:46;;;;;;;0.20;0.20;;;;;;;;;;5069258;28;20432;-68
2021/09/28 12:48:12;;;;;;;0.20;0.20;;;;;;;;;;5070003;28;20413;-68
2021/09/28 12:50:40;;;;;;;0.20;0.20;;;;;;;;;;5069776;28;20421;-68
2021/09/28 12:53:07;;;;;;;0.20;0.20;;;;;;;;;;5073995;28;20400;-68
2021/09/28 12:55:37;;;;;;;0.20;0.20;;;;;;;;;;5073852;28;20384;-68
2021/09/28 12:58:04;;;;;;;0.20;0.20;;;;;;;;;;5074800;28;20480;-68
2021/09/28 13:00:30;;;;;;;0.20;0.20;;;;;;;;;;5073816;28;20424;-68
2021/09/28 13:02:56;;;;;;;0.20;0.20;;;;;;;;;;5073862;28;20433;-68
2021/09/28 13:05:23;;;;;;;0.20;0.20;;;;;;;;;;5073796;28;20428;-68
2021/09/28 13:07:50;;;;;;;0.20;0.20;;;;;;;;;;5073428;28;20441;-68
2021/09/28 13:10:17;;;;;;;0.20;0.20;;;;;;;;;;5074601;28;20372;-68
2021/09/28 13:12:46;;;;;;;0.20;0.20;;;;;;;;;;5073622;28;20512;-68
2021/09/28 13:15:12;;;;;;;0.20;0.20;;;;;;;;;;5073752;28;20396;-68
2021/09/28 13:17:39;;;;;;;0.20;0.20;;;;;;;;;;5074678;28;20383;-68
2021/09/28 13:20:06;;;;;;;0.20;0.20;;;;;;;;;;5074576;28;20966;-68
2021/09/28 13:22:32;;;;;;;0.20;0.20;;;;;;;;;;5073223;28;20439;-68
2021/09/28 13:24:58;;;;;;;0.20;0.20;;;;;;;;;;5073479;28;20425;-68
2021/09/28 13:27:25;;;;;;;0.20;0.20;;;;;;;;;;5073356;28;20740;-67
2021/09/28 13:29:51;;;;;;;0.20;0.20;;;;;;;;;;5072773;28;20409;-68
2021/09/28 13:32:17;;;;;;;0.20;0.20;;;;;;;;;;5074323;28;20419;-68
2021/09/28 13:34:43;;;;;;;0.20;0.20;;;;;;;;;;5073005;28;20451;-67
2021/09/28 13:37:09;;;;;;;0.20;0.20;;;;;;;;;;5073306;28;20475;-67
2021/09/28 13:39:35;;;;;;;0.20;0.20;;;;;;;;;;5074623;28;20410;-67
2021/09/28 13:42:01;;;;;;;0.20;0.20;;;;;;;;;;5072434;28;20413;-67
2021/09/28 13:44:27;;;;;;;0.20;0.20;;;;;;;;;;5072979;28;20433;-67
2021/09/28 13:46:53;;;;;;;0.20;0.20;;;;;;;;;;5056220;28;20964;-67
2021/09/28 13:49:19;;;;;;;0.20;0.20;;;;;;;;;;5072969;28;20463;-67
2021/09/28 13:51:45;;;;;;;0.20;0.20;;;;;;;;;;5072413;28;20397;-67
2021/09/28 13:54:11;;;;;;;0.20;0.20;;;;;;;;;;5072735;28;20396;-67
2021/09/28 13:56:37;;;;;;;0.20;0.20;;;;;;;;;;5056397;28;20384;-67
2021/09/28 13:59:03;;;;;;;0.20;0.20;;;;;;;;;;5072520;28;20459;-67
2021/09/28 14:01:29;;;;;;;0.30;0.30;;;;;;;;;;5082773;28;20420;-67
2021/09/28 14:03:56;;;;;;;0.27;0.27;;;;;;;;;;5092018;28;20441;-67
2021/09/28 14:06:22;;;;;;;0.20;0.20;;;;;;;;;;5092818;28;20823;-67
2021/09/28 14:08:48;;;;;;;0.20;0.20;;;;;;;;;;5076249;28;20417;-68
2021/09/28 14:11:15;;;;;;;0.20;0.20;;;;;;;;;;5092442;28;20428;-67
2021/09/28 14:13:41;;;;;;;0.30;0.30;;;;;;;;;;5092430;28;20451;-68
2021/09/28 14:16:07;;;;;;;0.20;0.20;;;;;;;;;;5093969;28;20446;-68
2021/09/28 14:18:33;;;;;;;0.20;0.20;;;;;;;;;;5076145;28;20582;-68
2021/09/28 14:21:00;;;;;;;0.20;0.20;;;;;;;;;;5093917;28;20414;-67
2021/09/28 14:23:26;;;;;;;0.20;0.20;;;;;;;;;;5093931;28;20428;-68
2021/09/28 14:25:52;;;;;;;0.20;0.20;;;;;;;;;;5092627;28;20455;-68
2021/09/28 14:28:18;;;;;;;0.20;0.20;;;;;;;;;;5075614;28;20421;-68
2021/09/28 14:30:44;;;;;;;0.20;0.20;;;;;;;;;;5092190;28;20383;-68
2021/09/28 14:33:11;;;;;;;0.20;0.20;;;;;;;;;;5093872;28;20411;-68
2021/09/28 14:35:38;;;;;;;0.20;0.20;;;;;;;;;;5092498;28;20470;-68
2021/09/28 14:38:05;;;;;;;0.30;0.30;;;;;;;;;;5093790;28;20487;-68
2021/09/28 14:40:31;;;;;;;0.20;0.20;;;;;;;;;;5092175;28;20423;-68
2021/09/28 14:42:59;;;;;;;0.20;0.20;;;;;;;;;;5092213;28;20442;-68
2021/09/28 14:45:25;;;;;;;0.20;0.20;;;;;;;;;;5093878;28;20415;-68
2021/09/28 14:47:51;;;;;;;0.20;0.20;;;;;;;;;;5093697;28;20400;-68